Little Valley, Nevada Weather observations

Data are for 10 minute period ending at time listed.
 Day   Time    Ave.   Ave.  Ave.  Vector   Max.   Total    Solar   
  of    of     Air    Rel.  Wind   Wind    Wind  Precip.   Rad.    
Year   Day     Temp.  Hum.  Speed  Dir.    Gust                    
2015   (PST)    F      %     mph   deg.    mph     in.     W/m2    
------------------------------------------------------------------- 
 187   22:00   52.0    78    0.0   186      4.0   13.55       0  
 187   23:00   51.0    80    1.0   228      5.0   13.55       0  
 188    0:00   48.0    84    0.0   270      3.0   13.55       0  
 188    1:00   47.0    86    1.0   135      3.0   13.55       0  
 188    2:00   46.0    89    1.0   141      2.0   13.55       0  
 188    3:00   44.0    91    0.0   289      2.0   13.55       0  
 188    4:00   44.0    91    0.0   174      2.0   13.55       0  
 188    5:00   43.0    93    0.0   222      2.0   13.55       0  
 188    6:00   43.0    94    1.0   188      2.0   13.55      15  
 188    7:00   54.0    77    0.0    69      3.0   13.55     134  
 188    8:00   70.0    48    1.0    42      3.0   13.55     382  
 188    9:00   70.0    43    4.0    69      8.0   13.55     546  
 188   10:00   75.0    35    2.0    92      8.0   13.55     735  
 188   11:00   73.0    37    1.0     2      9.0   13.55     578  
 188   12:00   77.0    31    5.0   102     11.0   13.55    1015  
 188   13:00   66.0    49    7.0   247     14.0   13.55     211  
 188   14:00   63.0    44   10.0   211     26.0   13.55      15  
 188   15:00   61.0    50    2.0   146     19.0   13.56      41  
 188   16:00   62.0    60    1.0   221      5.0   13.56     155  
 188   17:00   63.0    47    4.0   254     10.0   13.56     111  
 188   18:00   62.0    53    5.0    30     13.0   13.56      87  
 188   19:00   60.0    60    4.0   329      9.0   13.56      66  
 188   20:00   55.0    78    1.0   202      4.0   13.56       8  
 188   21:00   52.0    84    1.0   157      3.0   13.56       0  

Return to Little Valley, Nevada graphs page.


Western Regional Climate Center,wrcc@dri.edu